sensor_id;sensor_type;location;lat;lon;timestamp;P1;durP1;ratioP1;P2;durP2;ratioP2
69532;SDS011;56729;52.036;5.332;2022-08-07T00:00:00;4.90;;;2.17;;
69532;SDS011;56729;52.036;5.332;2022-08-07T00:01:12;4.57;;;2.28;;
69532;SDS011;56729;52.036;5.332;2022-08-07T00:02:34;4.25;;;2.50;;
69532;SDS011;56729;52.036;5.332;2022-08-07T00:03:44;4.40;;;2.25;;
69532;SDS011;56729;52.036;5.332;2022-08-07T00:04:47;3.93;;;2.00;;
69532;SDS011;56729;52.036;5.332;2022-08-07T00:05:49;4.45;;;2.80;;
69532;SDS011;56729;52.036;5.332;2022-08-07T00:06:54;4.88;;;2.45;;
69532;SDS011;56729;52.036;5.332;2022-08-07T00:08:01;5.07;;;2.63;;
69532;SDS011;56729;52.036;5.332;2022-08-07T00:09:05;4.18;;;2.90;;
69532;SDS011;56729;52.036;5.332;2022-08-07T00:10:17;6.43;;;2.88;;
69532;SDS011;56729;52.036;5.332;2022-08-07T00:11:26;4.60;;;2.92;;
69532;SDS011;56729;52.036;5.332;2022-08-07T00:12:33;5.68;;;2.88;;
69532;SDS011;56729;52.036;5.332;2022-08-07T00:13:55;5.47;;;2.60;;
69532;SDS011;56729;52.036;5.332;2022-08-07T00:14:59;4.95;;;2.60;;
69532;SDS011;56729;52.036;5.332;2022-08-07T00:16:02;3.57;;;1.80;;
69532;SDS011;56729;52.036;5.332;2022-08-07T00:17:07;4.65;;;2.88;;
69532;SDS011;56729;52.036;5.332;2022-08-07T00:18:09;3.92;;;2.30;;
69532;SDS011;56729;52.036;5.332;2022-08-07T00:19:20;5.70;;;2.30;;
69532;SDS011;56729;52.036;5.332;2022-08-07T00:20:35;3.28;;;2.15;;
69532;SDS011;56729;52.036;5.332;2022-08-07T00:21:38;4.22;;;2.00;;
69532;SDS011;56729;52.036;5.332;2022-08-07T00:23:01;4.35;;;2.58;;
69532;SDS011;56729;52.036;5.332;2022-08-07T00:24:08;4.50;;;2.60;;
69532;SDS011;56729;52.036;5.332;2022-08-07T00:25:11;4.10;;;2.83;;
69532;SDS011;56729;52.036;5.332;2022-08-07T00:26:17;8.45;;;3.38;;
69532;SDS011;56729;52.036;5.332;2022-08-07T00:27:39;7.07;;;3.40;;
69532;SDS011;56729;52.036;5.332;2022-08-07T00:28:54;4.90;;;2.97;;
69532;SDS011;56729;52.036;5.332;2022-08-07T00:29:57;4.93;;;3.20;;
69532;SDS011;56729;52.036;5.332;2022-08-07T00:30:59;5.72;;;3.17;;
69532;SDS011;56729;52.036;5.332;2022-08-07T00:32:06;6.18;;;3.17;;
69532;SDS011;56729;52.036;5.332;2022-08-07T00:33:08;5.38;;;3.55;;
69532;SDS011;56729;52.036;5.332;2022-08-07T00:34:11;5.63;;;2.95;;
69532;SDS011;56729;52.036;5.332;2022-08-07T00:35:17;6.45;;;2.95;;
69532;SDS011;56729;52.036;5.332;2022-08-07T00:36:23;3.83;;;2.55;;
69532;SDS011;56729;52.036;5.332;2022-08-07T00:37:29;5.10;;;3.35;;
69532;SDS011;56729;52.036;5.332;2022-08-07T00:38:48;4.23;;;2.57;;
69532;SDS011;56729;52.036;5.332;2022-08-07T00:39:51;4.45;;;2.38;;
69532;SDS011;56729;52.036;5.332;2022-08-07T00:40:57;4.07;;;2.50;;
69532;SDS011;56729;52.036;5.332;2022-08-07T00:41:59;4.55;;;2.33;;
69532;SDS011;56729;52.036;5.332;2022-08-07T00:43:07;3.35;;;2.20;;
69532;SDS011;56729;52.036;5.332;2022-08-07T00:44:30;3.85;;;2.25;;
69532;SDS011;56729;52.036;5.332;2022-08-07T00:45:33;5.47;;;1.90;;
69532;SDS011;56729;52.036;5.332;2022-08-07T00:46:35;4.43;;;2.10;;
69532;SDS011;56729;52.036;5.332;2022-08-07T00:47:40;4.18;;;2.45;;
69532;SDS011;56729;52.036;5.332;2022-08-07T00:49:02;3.90;;;2.17;;
69532;SDS011;56729;52.036;5.332;2022-08-07T00:50:04;3.67;;;2.10;;
69532;SDS011;56729;52.036;5.332;2022-08-07T00:51:27;4.68;;;1.90;;
69532;SDS011;56729;52.036;5.332;2022-08-07T00:52:50;3.40;;;2.05;;
69532;SDS011;56729;52.036;5.332;2022-08-07T00:53:53;3.05;;;1.80;;
69532;SDS011;56729;52.036;5.332;2022-08-07T00:54:56;3.60;;;2.00;;
69532;SDS011;56729;52.036;5.332;2022-08-07T00:55:59;4.45;;;2.20;;
69532;SDS011;56729;52.036;5.332;2022-08-07T00:57:07;3.42;;;1.60;;
69532;SDS011;56729;52.036;5.332;2022-08-07T00:58:12;3.08;;;1.80;;
69532;SDS011;56729;52.036;5.332;2022-08-07T00:59:14;3.65;;;2.00;;
69532;SDS011;56729;52.036;5.332;2022-08-07T01:00:17;4.15;;;2.10;;
69532;SDS011;56729;52.036;5.332;2022-08-07T01:01:21;4.23;;;1.80;;
69532;SDS011;56729;52.036;5.332;2022-08-07T01:02:24;3.47;;;1.92;;
69532;SDS011;56729;52.036;5.332;2022-08-07T01:03:29;2.92;;;1.90;;
69532;SDS011;56729;52.036;5.332;2022-08-07T01:04:51;6.25;;;2.35;;
69532;SDS011;56729;52.036;5.332;2022-08-07T01:05:58;4.22;;;2.10;;
69532;SDS011;56729;52.036;5.332;2022-08-07T01:07:02;3.90;;;2.38;;
69532;SDS011;56729;52.036;5.332;2022-08-07T01:08:04;3.50;;;2.13;;
69532;SDS011;56729;52.036;5.332;2022-08-07T01:09:09;4.07;;;2.05;;
69532;SDS011;56729;52.036;5.332;2022-08-07T01:10:31;3.47;;;2.05;;
69532;SDS011;56729;52.036;5.332;2022-08-07T01:11:34;4.60;;;2.17;;
69532;SDS011;56729;52.036;5.332;2022-08-07T01:12:57;4.73;;;2.50;;
69532;SDS011;56729;52.036;5.332;2022-08-07T01:14:01;3.65;;;2.58;;
69532;SDS011;56729;52.036;5.332;2022-08-07T01:15:03;5.15;;;2.28;;
69532;SDS011;56729;52.036;5.332;2022-08-07T01:16:06;5.97;;;2.33;;
69532;SDS011;56729;52.036;5.332;2022-08-07T01:17:10;3.08;;;2.00;;
69532;SDS011;56729;52.036;5.332;2022-08-07T01:18:12;5.05;;;2.47;;
69532;SDS011;56729;52.036;5.332;2022-08-07T01:19:18;3.83;;;2.10;;
69532;SDS011;56729;52.036;5.332;2022-08-07T01:20:29;3.80;;;2.25;;
69532;SDS011;56729;52.036;5.332;2022-08-07T01:21:43;3.33;;;2.08;;
69532;SDS011;56729;52.036;5.332;2022-08-07T01:22:47;4.00;;;2.10;;
69532;SDS011;56729;52.036;5.332;2022-08-07T01:24:10;3.47;;;1.90;;
69532;SDS011;56729;52.036;5.332;2022-08-07T01:25:12;3.95;;;1.85;;
69532;SDS011;56729;52.036;5.332;2022-08-07T01:26:36;5.35;;;2.10;;
69532;SDS011;56729;52.036;5.332;2022-08-07T01:27:38;6.25;;;2.50;;
69532;SDS011;56729;52.036;5.332;2022-08-07T01:28:51;5.38;;;2.33;;
69532;SDS011;56729;52.036;5.332;2022-08-07T01:29:56;5.97;;;2.30;;
69532;SDS011;56729;52.036;5.332;2022-08-07T01:31:00;7.78;;;2.50;;
69532;SDS011;56729;52.036;5.332;2022-08-07T01:32:05;4.18;;;2.25;;
69532;SDS011;56729;52.036;5.332;2022-08-07T01:33:16;3.53;;;2.00;;
69532;SDS011;56729;52.036;5.332;2022-08-07T01:34:19;3.78;;;2.58;;
69532;SDS011;56729;52.036;5.332;2022-08-07T01:35:32;4.33;;;2.20;;
69532;SDS011;56729;52.036;5.332;2022-08-07T01:36:54;3.70;;;2.10;;
69532;SDS011;56729;52.036;5.332;2022-08-07T01:38:00;3.50;;;2.05;;
69532;SDS011;56729;52.036;5.332;2022-08-07T01:39:03;5.97;;;2.25;;
69532;SDS011;56729;52.036;5.332;2022-08-07T01:40:11;6.32;;;3.03;;
69532;SDS011;56729;52.036;5.332;2022-08-07T01:41:24;4.60;;;2.13;;
69532;SDS011;56729;52.036;5.332;2022-08-07T01:42:31;5.03;;;2.20;;
69532;SDS011;56729;52.036;5.332;2022-08-07T01:43:42;5.00;;;2.38;;
69532;SDS011;56729;52.036;5.332;2022-08-07T01:44:45;3.92;;;2.33;;
69532;SDS011;56729;52.036;5.332;2022-08-07T01:45:49;4.47;;;2.45;;
69532;SDS011;56729;52.036;5.332;2022-08-07T01:46:57;3.40;;;1.70;;
69532;SDS011;56729;52.036;5.332;2022-08-07T01:48:03;3.72;;;2.13;;
69532;SDS011;56729;52.036;5.332;2022-08-07T01:49:26;2.90;;;1.90;;
69532;SDS011;56729;52.036;5.332;2022-08-07T01:50:32;4.45;;;2.33;;
69532;SDS011;56729;52.036;5.332;2022-08-07T01:51:40;3.67;;;1.98;;
69532;SDS011;56729;52.036;5.332;2022-08-07T01:53:04;3.30;;;2.50;;
69532;SDS011;56729;52.036;5.332;2022-08-07T01:54:10;4.80;;;2.17;;
69532;SDS011;56729;52.036;5.332;2022-08-07T01:55:38;5.00;;;2.28;;
69532;SDS011;56729;52.036;5.332;2022-08-07T01:58:06;6.20;;;2.30;;
69532;SDS011;56729;52.036;5.332;2022-08-07T01:59:33;3.63;;;2.13;;
69532;SDS011;56729;52.036;5.332;2022-08-07T02:00:44;3.85;;;2.60;;
69532;SDS011;56729;52.036;5.332;2022-08-07T02:01:52;4.63;;;2.40;;
69532;SDS011;56729;52.036;5.332;2022-08-07T02:03:06;4.40;;;2.70;;
69532;SDS011;56729;52.036;5.332;2022-08-07T02:04:31;6.70;;;3.00;;
69532;SDS011;56729;52.036;5.332;2022-08-07T02:05:59;5.93;;;3.28;;
69532;SDS011;56729;52.036;5.332;2022-08-07T02:07:28;4.60;;;2.80;;
69532;SDS011;56729;52.036;5.332;2022-08-07T02:08:50;5.90;;;3.05;;
69532;SDS011;56729;52.036;5.332;2022-08-07T02:09:58;4.43;;;2.75;;
69532;SDS011;56729;52.036;5.332;2022-08-07T02:11:02;4.65;;;2.97;;
69532;SDS011;56729;52.036;5.332;2022-08-07T02:12:06;6.17;;;2.50;;
69532;SDS011;56729;52.036;5.332;2022-08-07T02:13:26;4.30;;;2.33;;
69532;SDS011;56729;52.036;5.332;2022-08-07T02:14:52;3.70;;;2.25;;
69532;SDS011;56729;52.036;5.332;2022-08-07T02:16:06;3.40;;;2.08;;
69532;SDS011;56729;52.036;5.332;2022-08-07T02:17:14;3.95;;;2.10;;
69532;SDS011;56729;52.036;5.332;2022-08-07T02:18:32;5.82;;;2.03;;
69532;SDS011;56729;52.036;5.332;2022-08-07T02:19:46;3.38;;;1.70;;
69532;SDS011;56729;52.036;5.332;2022-08-07T02:21:09;3.63;;;1.75;;
69532;SDS011;56729;52.036;5.332;2022-08-07T02:22:16;3.25;;;1.98;;
69532;SDS011;56729;52.036;5.332;2022-08-07T02:23:20;3.58;;;1.88;;
69532;SDS011;56729;52.036;5.332;2022-08-07T02:24:24;3.47;;;1.90;;
69532;SDS011;56729;52.036;5.332;2022-08-07T02:25:30;4.18;;;2.28;;
69532;SDS011;56729;52.036;5.332;2022-08-07T02:26:56;3.70;;;1.77;;
69532;SDS011;56729;52.036;5.332;2022-08-07T02:28:02;5.63;;;1.95;;
69532;SDS011;56729;52.036;5.332;2022-08-07T02:29:07;3.28;;;1.80;;
69532;SDS011;56729;52.036;5.332;2022-08-07T02:30:15;5.07;;;2.08;;
69532;SDS011;56729;52.036;5.332;2022-08-07T02:31:19;4.45;;;1.75;;
69532;SDS011;56729;52.036;5.332;2022-08-07T02:32:29;3.92;;;1.50;;
69532;SDS011;56729;52.036;5.332;2022-08-07T02:33:33;3.13;;;2.00;;
69532;SDS011;56729;52.036;5.332;2022-08-07T02:34:58;3.90;;;1.83;;
69532;SDS011;56729;52.036;5.332;2022-08-07T02:36:03;3.83;;;1.83;;
69532;SDS011;56729;52.036;5.332;2022-08-07T02:37:27;4.93;;;2.00;;
69532;SDS011;56729;52.036;5.332;2022-08-07T02:38:39;3.35;;;1.90;;
69532;SDS011;56729;52.036;5.332;2022-08-07T02:39:58;3.45;;;1.73;;
69532;SDS011;56729;52.036;5.332;2022-08-07T02:41:22;4.13;;;2.13;;
69532;SDS011;56729;52.036;5.332;2022-08-07T02:42:34;4.55;;;2.22;;
69532;SDS011;56729;52.036;5.332;2022-08-07T02:43:37;3.50;;;1.85;;
69532;SDS011;56729;52.036;5.332;2022-08-07T02:44:45;2.90;;;2.00;;
69532;SDS011;56729;52.036;5.332;2022-08-07T02:45:56;3.20;;;1.90;;
69532;SDS011;56729;52.036;5.332;2022-08-07T02:47:04;4.53;;;2.40;;
69532;SDS011;56729;52.036;5.332;2022-08-07T02:48:22;3.50;;;1.90;;
69532;SDS011;56729;52.036;5.332;2022-08-07T02:49:29;5.13;;;1.88;;
69532;SDS011;56729;52.036;5.332;2022-08-07T02:50:52;4.47;;;1.80;;
69532;SDS011;56729;52.036;5.332;2022-08-07T02:51:57;4.13;;;1.90;;
69532;SDS011;56729;52.036;5.332;2022-08-07T02:53:03;5.60;;;1.92;;
69532;SDS011;56729;52.036;5.332;2022-08-07T02:54:11;4.65;;;2.28;;
69532;SDS011;56729;52.036;5.332;2022-08-07T02:55:20;4.20;;;1.63;;
69532;SDS011;56729;52.036;5.332;2022-08-07T02:56:45;3.65;;;2.08;;
69532;SDS011;56729;52.036;5.332;2022-08-07T02:57:50;6.20;;;2.30;;
69532;SDS011;56729;52.036;5.332;2022-08-07T02:58:54;4.38;;;2.10;;
69532;SDS011;56729;52.036;5.332;2022-08-07T03:00:02;3.63;;;1.70;;
69532;SDS011;56729;52.036;5.332;2022-08-07T03:01:12;3.50;;;1.83;;
69532;SDS011;56729;52.036;5.332;2022-08-07T03:02:35;3.67;;;1.75;;
69532;SDS011;56729;52.036;5.332;2022-08-07T03:03:51;2.67;;;1.70;;
69532;SDS011;56729;52.036;5.332;2022-08-07T03:05:00;4.85;;;2.30;;
69532;SDS011;56729;52.036;5.332;2022-08-07T03:06:07;4.93;;;2.10;;
69532;SDS011;56729;52.036;5.332;2022-08-07T03:07:18;3.20;;;1.80;;
69532;SDS011;56729;52.036;5.332;2022-08-07T03:08:41;4.13;;;2.67;;
69532;SDS011;56729;52.036;5.332;2022-08-07T03:09:43;4.35;;;1.90;;
69532;SDS011;56729;52.036;5.332;2022-08-07T03:10:53;4.25;;;1.80;;
69532;SDS011;56729;52.036;5.332;2022-08-07T03:12:05;6.70;;;1.80;;
69532;SDS011;56729;52.036;5.332;2022-08-07T03:13:22;3.28;;;2.00;;
69532;SDS011;56729;52.036;5.332;2022-08-07T03:14:27;4.75;;;1.85;;
69532;SDS011;56729;52.036;5.332;2022-08-07T03:15:31;4.00;;;2.25;;
69532;SDS011;56729;52.036;5.332;2022-08-07T03:16:55;5.28;;;1.80;;
69532;SDS011;56729;52.036;5.332;2022-08-07T03:17:57;4.20;;;2.17;;
69532;SDS011;56729;52.036;5.332;2022-08-07T03:19:00;4.20;;;2.00;;
69532;SDS011;56729;52.036;5.332;2022-08-07T03:20:05;4.72;;;2.90;;
69532;SDS011;56729;52.036;5.332;2022-08-07T03:21:08;3.78;;;2.42;;
69532;SDS011;56729;52.036;5.332;2022-08-07T03:22:12;3.38;;;2.28;;
69532;SDS011;56729;52.036;5.332;2022-08-07T03:23:20;4.37;;;1.77;;
69532;SDS011;56729;52.036;5.332;2022-08-07T03:24:42;3.88;;;2.22;;
69532;SDS011;56729;52.036;5.332;2022-08-07T03:25:45;3.30;;;1.92;;
69532;SDS011;56729;52.036;5.332;2022-08-07T03:26:59;4.20;;;1.85;;
69532;SDS011;56729;52.036;5.332;2022-08-07T03:28:16;3.90;;;2.17;;
69532;SDS011;56729;52.036;5.332;2022-08-07T03:29:39;3.95;;;1.95;;
69532;SDS011;56729;52.036;5.332;2022-08-07T03:30:54;3.17;;;1.65;;
69532;SDS011;56729;52.036;5.332;2022-08-07T03:32:19;5.82;;;2.13;;
69532;SDS011;56729;52.036;5.332;2022-08-07T03:33:25;3.60;;;2.15;;
69532;SDS011;56729;52.036;5.332;2022-08-07T03:34:41;3.13;;;2.00;;
69532;SDS011;56729;52.036;5.332;2022-08-07T03:36:02;4.10;;;2.17;;
69532;SDS011;56729;52.036;5.332;2022-08-07T03:37:06;3.97;;;2.47;;
69532;SDS011;56729;52.036;5.332;2022-08-07T03:38:16;4.57;;;1.88;;
69532;SDS011;56729;52.036;5.332;2022-08-07T03:39:33;5.07;;;2.00;;
69532;SDS011;56729;52.036;5.332;2022-08-07T03:40:56;4.43;;;2.10;;
69532;SDS011;56729;52.036;5.332;2022-08-07T03:42:02;4.95;;;2.42;;
69532;SDS011;56729;52.036;5.332;2022-08-07T03:43:06;5.05;;;2.28;;
69532;SDS011;56729;52.036;5.332;2022-08-07T03:44:18;5.25;;;2.38;;
69532;SDS011;56729;52.036;5.332;2022-08-07T03:45:34;4.10;;;2.22;;
69532;SDS011;56729;52.036;5.332;2022-08-07T03:46:45;3.95;;;2.08;;
69532;SDS011;56729;52.036;5.332;2022-08-07T03:48:08;4.50;;;2.10;;
69532;SDS011;56729;52.036;5.332;2022-08-07T03:49:12;3.45;;;2.78;;
69532;SDS011;56729;52.036;5.332;2022-08-07T03:50:17;4.10;;;2.33;;
69532;SDS011;56729;52.036;5.332;2022-08-07T03:51:25;3.55;;;2.05;;
69532;SDS011;56729;52.036;5.332;2022-08-07T03:52:48;4.82;;;2.40;;
69532;SDS011;56729;52.036;5.332;2022-08-07T03:53:51;4.75;;;2.15;;
69532;SDS011;56729;52.036;5.332;2022-08-07T03:55:13;5.30;;;2.45;;
69532;SDS011;56729;52.036;5.332;2022-08-07T03:56:19;3.60;;;2.20;;
69532;SDS011;56729;52.036;5.332;2022-08-07T03:57:36;4.05;;;2.28;;
69532;SDS011;56729;52.036;5.332;2022-08-07T03:59:05;3.70;;;2.25;;
69532;SDS011;56729;52.036;5.332;2022-08-07T04:00:16;4.00;;;2.20;;
69532;SDS011;56729;52.036;5.332;2022-08-07T04:01:29;5.13;;;2.17;;
69532;SDS011;56729;52.036;5.332;2022-08-07T04:02:37;4.80;;;2.25;;
69532;SDS011;56729;52.036;5.332;2022-08-07T04:03:41;3.88;;;2.13;;
69532;SDS011;56729;52.036;5.332;2022-08-07T04:04:55;3.60;;;2.47;;
69532;SDS011;56729;52.036;5.332;2022-08-07T04:05:57;5.50;;;2.60;;
69532;SDS011;56729;52.036;5.332;2022-08-07T04:07:01;3.35;;;2.35;;
69532;SDS011;56729;52.036;5.332;2022-08-07T04:08:18;4.68;;;2.53;;
69532;SDS011;56729;52.036;5.332;2022-08-07T04:09:23;6.40;;;2.38;;
69532;SDS011;56729;52.036;5.332;2022-08-07T04:10:45;4.22;;;2.38;;
69532;SDS011;56729;52.036;5.332;2022-08-07T04:12:05;4.43;;;2.00;;
69532;SDS011;56729;52.036;5.332;2022-08-07T04:13:27;6.55;;;2.28;;
69532;SDS011;56729;52.036;5.332;2022-08-07T04:14:50;5.35;;;2.33;;
69532;SDS011;56729;52.036;5.332;2022-08-07T04:15:53;5.03;;;2.00;;
69532;SDS011;56729;52.036;5.332;2022-08-07T04:16:55;4.68;;;2.42;;
69532;SDS011;56729;52.036;5.332;2022-08-07T04:18:00;4.95;;;2.60;;
69532;SDS011;56729;52.036;5.332;2022-08-07T04:19:23;4.47;;;1.80;;
69532;SDS011;56729;52.036;5.332;2022-08-07T04:20:46;3.60;;;1.95;;
69532;SDS011;56729;52.036;5.332;2022-08-07T04:21:55;3.67;;;2.22;;
69532;SDS011;56729;52.036;5.332;2022-08-07T04:23:10;5.00;;;2.17;;
69532;SDS011;56729;52.036;5.332;2022-08-07T04:24:20;4.87;;;2.10;;
69532;SDS011;56729;52.036;5.332;2022-08-07T04:25:36;3.78;;;2.30;;
69532;SDS011;56729;52.036;5.332;2022-08-07T04:26:42;3.47;;;2.20;;
69532;SDS011;56729;52.036;5.332;2022-08-07T04:27:45;4.40;;;2.33;;
69532;SDS011;56729;52.036;5.332;2022-08-07T04:28:59;4.63;;;2.50;;
69532;SDS011;56729;52.036;5.332;2022-08-07T04:30:03;4.32;;;2.35;;
69532;SDS011;56729;52.036;5.332;2022-08-07T04:31:28;3.38;;;2.22;;
69532;SDS011;56729;52.036;5.332;2022-08-07T04:32:50;4.78;;;2.42;;
69532;SDS011;56729;52.036;5.332;2022-08-07T04:34:00;3.35;;;2.20;;
69532;SDS011;56729;52.036;5.332;2022-08-07T04:35:03;4.15;;;2.65;;
69532;SDS011;56729;52.036;5.332;2022-08-07T04:36:12;5.73;;;2.27;;
69532;SDS011;56729;52.036;5.332;2022-08-07T04:37:16;5.35;;;2.88;;
69532;SDS011;56729;52.036;5.332;2022-08-07T04:38:23;4.22;;;2.25;;
69532;SDS011;56729;52.036;5.332;2022-08-07T04:39:26;4.28;;;2.75;;
69532;SDS011;56729;52.036;5.332;2022-08-07T04:40:40;4.82;;;2.50;;
69532;SDS011;56729;52.036;5.332;2022-08-07T04:41:54;4.63;;;2.50;;
69532;SDS011;56729;52.036;5.332;2022-08-07T04:42:57;3.50;;;2.45;;
69532;SDS011;56729;52.036;5.332;2022-08-07T04:44:05;4.45;;;2.80;;
69532;SDS011;56729;52.036;5.332;2022-08-07T04:45:19;3.88;;;2.72;;
69532;SDS011;56729;52.036;5.332;2022-08-07T04:46:48;4.78;;;2.70;;
69532;SDS011;56729;52.036;5.332;2022-08-07T04:49:48;5.03;;;2.70;;
69532;SDS011;56729;52.036;5.332;2022-08-07T04:51:09;3.70;;;2.33;;
69532;SDS011;56729;52.036;5.332;2022-08-07T04:53:37;4.45;;;2.42;;
69532;SDS011;56729;52.036;5.332;2022-08-07T04:55:27;3.97;;;2.35;;
69532;SDS011;56729;52.036;5.332;2022-08-07T04:56:48;5.40;;;2.63;;
69532;SDS011;56729;52.036;5.332;2022-08-07T05:01:20;4.65;;;2.63;;
69532;SDS011;56729;52.036;5.332;2022-08-07T05:05:24;3.30;;;2.28;;
69532;SDS011;56729;52.036;5.332;2022-08-07T05:06:57;4.00;;;2.47;;
69532;SDS011;56729;52.036;5.332;2022-08-07T05:08:37;6.55;;;3.20;;
69532;SDS011;56729;52.036;5.332;2022-08-07T05:11:27;4.63;;;2.88;;
69532;SDS011;56729;52.036;5.332;2022-08-07T05:12:55;4.32;;;2.95;;
69532;SDS011;56729;52.036;5.332;2022-08-07T05:15:48;4.43;;;2.55;;
69532;SDS011;56729;52.036;5.332;2022-08-07T05:16:55;4.77;;;2.50;;
69532;SDS011;56729;52.036;5.332;2022-08-07T05:18:08;4.45;;;2.33;;
69532;SDS011;56729;52.036;5.332;2022-08-07T05:19:19;4.72;;;2.50;;
69532;SDS011;56729;52.036;5.332;2022-08-07T05:20:37;4.45;;;2.60;;
69532;SDS011;56729;52.036;5.332;2022-08-07T05:21:43;4.00;;;2.67;;
69532;SDS011;56729;52.036;5.332;2022-08-07T05:23:15;5.57;;;2.95;;
69532;SDS011;56729;52.036;5.332;2022-08-07T05:24:24;4.03;;;2.40;;
69532;SDS011;56729;52.036;5.332;2022-08-07T05:25:40;4.85;;;3.15;;
69532;SDS011;56729;52.036;5.332;2022-08-07T05:27:04;6.95;;;3.10;;
69532;SDS011;56729;52.036;5.332;2022-08-07T05:28:31;7.80;;;3.30;;
69532;SDS011;56729;52.036;5.332;2022-08-07T05:29:36;4.40;;;2.67;;
69532;SDS011;56729;52.036;5.332;2022-08-07T05:30:52;4.75;;;3.25;;
69532;SDS011;56729;52.036;5.332;2022-08-07T05:31:59;5.25;;;2.60;;
69532;SDS011;56729;52.036;5.332;2022-08-07T05:33:04;3.65;;;2.30;;
69532;SDS011;56729;52.036;5.332;2022-08-07T05:34:10;4.72;;;2.38;;
69532;SDS011;56729;52.036;5.332;2022-08-07T05:35:18;3.80;;;2.75;;
69532;SDS011;56729;52.036;5.332;2022-08-07T05:36:35;3.28;;;2.00;;
69532;SDS011;56729;52.036;5.332;2022-08-07T05:37:43;4.05;;;2.78;;
69532;SDS011;56729;52.036;5.332;2022-08-07T05:39:06;10.85;;;2.92;;
69532;SDS011;56729;52.036;5.332;2022-08-07T05:40:34;4.22;;;2.35;;
69532;SDS011;56729;52.036;5.332;2022-08-07T05:41:51;4.50;;;2.67;;
69532;SDS011;56729;52.036;5.332;2022-08-07T05:43:03;4.72;;;2.78;;
69532;SDS011;56729;52.036;5.332;2022-08-07T05:44:12;4.13;;;2.40;;
69532;SDS011;56729;52.036;5.332;2022-08-07T05:45:19;4.40;;;2.53;;
69532;SDS011;56729;52.036;5.332;2022-08-07T05:46:42;4.32;;;2.67;;
69532;SDS011;56729;52.036;5.332;2022-08-07T05:47:44;4.03;;;2.40;;
69532;SDS011;56729;52.036;5.332;2022-08-07T05:49:06;5.47;;;2.38;;
69532;SDS011;56729;52.036;5.332;2022-08-07T05:50:15;4.95;;;2.53;;
69532;SDS011;56729;52.036;5.332;2022-08-07T05:51:18;3.55;;;2.55;;
69532;SDS011;56729;52.036;5.332;2022-08-07T05:52:21;4.47;;;2.75;;
69532;SDS011;56729;52.036;5.332;2022-08-07T05:53:33;6.53;;;2.30;;
69532;SDS011;56729;52.036;5.332;2022-08-07T05:54:55;6.57;;;3.72;;
69532;SDS011;56729;52.036;5.332;2022-08-07T05:56:08;6.65;;;2.38;;
69532;SDS011;56729;52.036;5.332;2022-08-07T05:57:16;4.47;;;2.50;;
69532;SDS011;56729;52.036;5.332;2022-08-07T05:58:20;4.85;;;2.83;;
69532;SDS011;56729;52.036;5.332;2022-08-07T05:59:39;5.95;;;3.30;;
69532;SDS011;56729;52.036;5.332;2022-08-07T06:00:59;4.70;;;2.88;;
69532;SDS011;56729;52.036;5.332;2022-08-07T06:02:06;5.90;;;2.65;;
69532;SDS011;56729;52.036;5.332;2022-08-07T06:03:10;4.57;;;3.05;;
69532;SDS011;56729;52.036;5.332;2022-08-07T06:04:15;4.38;;;3.25;;
69532;SDS011;56729;52.036;5.332;2022-08-07T06:05:20;5.57;;;2.90;;
69532;SDS011;56729;52.036;5.332;2022-08-07T06:06:29;6.10;;;3.15;;
69532;SDS011;56729;52.036;5.332;2022-08-07T06:07:37;4.45;;;2.80;;
69532;SDS011;56729;52.036;5.332;2022-08-07T06:09:01;4.32;;;3.03;;
69532;SDS011;56729;52.036;5.332;2022-08-07T06:10:05;6.22;;;3.38;;
69532;SDS011;56729;52.036;5.332;2022-08-07T06:11:15;4.60;;;2.90;;
69532;SDS011;56729;52.036;5.332;2022-08-07T06:12:17;4.50;;;2.80;;
69532;SDS011;56729;52.036;5.332;2022-08-07T06:13:28;4.18;;;2.67;;
69532;SDS011;56729;52.036;5.332;2022-08-07T06:14:49;25.90;;;6.35;;
69532;SDS011;56729;52.036;5.332;2022-08-07T06:15:51;5.13;;;2.75;;
69532;SDS011;56729;52.036;5.332;2022-08-07T06:17:00;3.87;;;2.67;;
69532;SDS011;56729;52.036;5.332;2022-08-07T06:18:11;5.72;;;3.20;;
69532;SDS011;56729;52.036;5.332;2022-08-07T06:19:16;4.93;;;2.83;;
69532;SDS011;56729;52.036;5.332;2022-08-07T06:20:40;5.53;;;3.20;;
69532;SDS011;56729;52.036;5.332;2022-08-07T06:22:08;6.07;;;2.90;;
69532;SDS011;56729;52.036;5.332;2022-08-07T06:23:29;4.88;;;2.80;;
69532;SDS011;56729;52.036;5.332;2022-08-07T06:24:52;4.13;;;3.00;;
69532;SDS011;56729;52.036;5.332;2022-08-07T06:26:01;4.40;;;3.40;;
69532;SDS011;56729;52.036;5.332;2022-08-07T06:27:07;6.30;;;3.58;;
69532;SDS011;56729;52.036;5.332;2022-08-07T06:28:10;6.28;;;3.45;;
69532;SDS011;56729;52.036;5.332;2022-08-07T06:29:15;6.17;;;3.60;;
69532;SDS011;56729;52.036;5.332;2022-08-07T06:30:17;7.28;;;4.50;;
69532;SDS011;56729;52.036;5.332;2022-08-07T06:31:35;8.75;;;4.88;;
69532;SDS011;56729;52.036;5.332;2022-08-07T06:32:51;7.50;;;4.88;;
69532;SDS011;56729;52.036;5.332;2022-08-07T06:33:53;5.78;;;4.20;;
69532;SDS011;56729;52.036;5.332;2022-08-07T06:34:55;9.13;;;4.97;;
69532;SDS011;56729;52.036;5.332;2022-08-07T06:35:57;7.05;;;4.60;;
69532;SDS011;56729;52.036;5.332;2022-08-07T06:37:20;7.13;;;4.72;;
69532;SDS011;56729;52.036;5.332;2022-08-07T06:38:22;10.88;;;5.30;;
69532;SDS011;56729;52.036;5.332;2022-08-07T06:39:28;8.63;;;5.00;;
69532;SDS011;56729;52.036;5.332;2022-08-07T06:40:52;7.30;;;5.20;;
69532;SDS011;56729;52.036;5.332;2022-08-07T06:43:44;7.28;;;5.10;;
69532;SDS011;56729;52.036;5.332;2022-08-07T06:45:08;6.55;;;4.65;;
69532;SDS011;56729;52.036;5.332;2022-08-07T06:46:21;6.47;;;4.57;;
69532;SDS011;56729;52.036;5.332;2022-08-07T06:47:35;6.63;;;4.47;;
69532;SDS011;56729;52.036;5.332;2022-08-07T06:48:57;6.65;;;4.38;;
69532;SDS011;56729;52.036;5.332;2022-08-07T06:50:04;6.95;;;4.80;;
69532;SDS011;56729;52.036;5.332;2022-08-07T06:51:13;8.77;;;4.95;;
69532;SDS011;56729;52.036;5.332;2022-08-07T06:52:36;7.15;;;4.60;;
69532;SDS011;56729;52.036;5.332;2022-08-07T06:53:46;7.53;;;5.40;;
69532;SDS011;56729;52.036;5.332;2022-08-07T06:55:13;8.73;;;4.95;;
69532;SDS011;56729;52.036;5.332;2022-08-07T06:56:38;9.80;;;5.07;;
69532;SDS011;56729;52.036;5.332;2022-08-07T06:58:00;8.57;;;5.32;;
69532;SDS011;56729;52.036;5.332;2022-08-07T06:59:09;7.80;;;5.28;;
69532;SDS011;56729;52.036;5.332;2022-08-07T07:00:39;7.10;;;4.88;;
69532;SDS011;56729;52.036;5.332;2022-08-07T07:01:43;7.43;;;5.05;;
69532;SDS011;56729;52.036;5.332;2022-08-07T07:02:51;7.32;;;5.18;;
69532;SDS011;56729;52.036;5.332;2022-08-07T07:04:02;7.50;;;5.22;;
69532;SDS011;56729;52.036;5.332;2022-08-07T07:05:25;11.70;;;5.00;;
69532;SDS011;56729;52.036;5.332;2022-08-07T07:06:47;7.50;;;5.00;;
69532;SDS011;56729;52.036;5.332;2022-08-07T07:08:01;7.38;;;5.18;;
69532;SDS011;56729;52.036;5.332;2022-08-07T07:09:20;6.28;;;5.00;;
69532;SDS011;56729;52.036;5.332;2022-08-07T07:10:32;8.50;;;5.22;;
69532;SDS011;56729;52.036;5.332;2022-08-07T07:11:36;7.68;;;4.50;;
69532;SDS011;56729;52.036;5.332;2022-08-07T07:13:02;8.77;;;5.20;;
69532;SDS011;56729;52.036;5.332;2022-08-07T07:15:59;5.97;;;4.35;;
69532;SDS011;56729;52.036;5.332;2022-08-07T07:17:07;8.38;;;4.60;;
69532;SDS011;56729;52.036;5.332;2022-08-07T07:18:20;9.18;;;4.93;;
69532;SDS011;56729;52.036;5.332;2022-08-07T07:19:46;7.23;;;4.63;;
69532;SDS011;56729;52.036;5.332;2022-08-07T07:21:00;8.35;;;4.07;;
69532;SDS011;56729;52.036;5.332;2022-08-07T07:22:19;6.50;;;3.80;;
69532;SDS011;56729;52.036;5.332;2022-08-07T07:23:39;6.57;;;3.50;;
69532;SDS011;56729;52.036;5.332;2022-08-07T07:25:02;6.18;;;4.20;;
69532;SDS011;56729;52.036;5.332;2022-08-07T07:26:26;6.90;;;4.43;;
69532;SDS011;56729;52.036;5.332;2022-08-07T07:27:47;6.20;;;4.00;;
69532;SDS011;56729;52.036;5.332;2022-08-07T07:29:23;6.30;;;4.30;;
69532;SDS011;56729;52.036;5.332;2022-08-07T07:30:50;5.70;;;3.33;;